Time;durP1;ratioP1;P1;durP2;ratioP2;P2;SDS_P1;SDS_P2;PMS_P1;PMS_P2;Temp;Humidity;BMP_temperature;BMP_pressure;BME280_temperature;BME280_humidity;BME280_pressure;Samples;Min_cycle;Max_cycle;Signal;HPM_P1;HPM_P2
2021/12/17 12:38:14;;;;;;;66.17;60.23;;;7.40;99.90;;;;;;5085832;28;20621;-87
2021/12/17 12:40:45;;;;;;;61.17;45.33;;;7.50;99.90;;;;;;5069442;28;20702;-79
2021/12/17 12:43:26;;;;;;;41.90;35.73;;;7.80;99.90;;;;;;5087484;28;20201;-75
2021/12/17 12:45:53;;;;;;;42.80;38.97;;;8.10;99.70;;;;;;5079837;28;20776;-83
2021/12/17 12:48:30;;;;;;;37.83;33.50;;;8.40;98.70;;;;;;5074511;28;20228;-78
2021/12/17 12:51:20;;;;;;;40.50;36.10;;;8.70;98.00;;;;;;5076335;28;20307;-92
2021/12/17 12:54:02;;;;;;;50.13;35.53;;;9.00;97.40;;;;;;5074017;28;20199;-90
2021/12/17 12:56:30;;;;;;;41.27;28.97;;;9.20;96.80;;;;;;5079196;28;20242;-71
2021/12/17 12:58:58;;;;;;;51.37;29.50;;;9.40;96.30;;;;;;5076867;28;20201;-74
2021/12/17 13:01:25;;;;;;;48.23;30.67;;;9.50;95.90;;;;;;5067027;28;20257;-89
2021/12/17 13:03:52;;;;;;;42.47;28.97;;;9.70;95.60;;;;;;5068779;28;20306;-87
2021/12/17 13:06:22;;;;;;;52.30;28.87;;;9.80;95.20;;;;;;5067555;28;20206;-76
2021/12/17 13:08:59;;;;;;;58.00;30.07;;;9.90;94.90;;;;;;5066732;28;20203;-83
2021/12/17 13:11:26;;;;;;;56.87;28.87;;;10.00;93.90;;;;;;5080426;28;20207;-89
2021/12/17 13:13:55;;;;;;;65.57;31.63;;;10.10;93.80;;;;;;5079221;28;20249;-75
2021/12/17 13:16:35;;;;;;;56.47;29.93;;;10.20;93.60;;;;;;5065587;28;20227;-76
2021/12/17 13:22:01;;;;;;;46.17;27.27;;;10.40;93.30;;;;;;5066107;28;20334;-83
2021/12/17 13:24:33;;;;;;;59.53;26.53;;;10.40;92.90;;;;;;5073225;28;20601;-80
2021/12/17 13:27:02;;;;;;;73.50;32.47;;;10.50;92.60;;;;;;5065163;28;20209;-72
2021/12/17 13:29:32;;;;;;;47.97;29.70;;;10.50;92.40;;;;;;5065795;28;20210;-77
2021/12/17 13:32:01;;;;;;;38.83;23.10;;;10.50;92.10;;;;;;5065918;28;20207;-77
2021/12/17 13:34:31;;;;;;;57.90;23.60;;;10.60;92.00;;;;;;5065342;28;20306;-75
2021/12/17 13:37:11;;;;;;;41.47;20.50;;;10.50;91.80;;;;;;5065709;28;20772;-71
2021/12/17 13:39:43;;;;;;;40.00;21.80;;;10.60;91.60;;;;;;5065900;28;20218;-71
2021/12/17 13:42:14;;;;;;;47.73;22.37;;;10.60;91.50;;;;;;5065494;28;20253;-72
2021/12/17 13:44:44;;;;;;;46.63;21.93;;;10.60;91.50;;;;;;5079223;28;20249;-77
2021/12/17 13:47:14;;;;;;;41.03;20.87;;;10.60;91.50;;;;;;5082175;28;20299;-71
2021/12/17 13:49:43;;;;;;;34.10;23.33;;;10.60;91.20;;;;;;5071992;28;20302;-76
2021/12/17 13:52:10;;;;;;;49.17;22.73;;;10.60;91.20;;;;;;5073011;28;20242;-85
2021/12/17 13:54:37;;;;;;;40.33;26.53;;;10.70;91.30;;;;;;5057001;28;20219;-80
2021/12/17 13:57:11;;;;;;;56.43;25.03;;;10.70;91.20;;;;;;5067843;28;20227;-81
2021/12/17 13:59:39;;;;;;;70.60;27.03;;;10.70;91.20;;;;;;5070788;28;20805;-80
2021/12/17 14:02:12;;;;;;;39.37;23.07;;;10.60;91.20;;;;;;5072048;28;20310;-81
2021/12/17 14:04:40;;;;;;;47.63;23.23;;;10.70;91.20;;;;;;5071403;28;20647;-77
2021/12/17 14:07:07;;;;;;;47.70;22.70;;;10.70;91.30;;;;;;5054878;28;20637;-81
2021/12/17 14:09:35;;;;;;;44.37;24.70;;;10.70;91.30;;;;;;5052277;28;20295;-77
2021/12/17 14:12:12;;;;;;;52.40;24.93;;;10.70;91.20;;;;;;5052120;28;20683;-83
2021/12/17 14:14:39;;;;;;;70.43;30.40;;;10.80;91.00;;;;;;5051385;28;20761;-87
2021/12/17 14:17:08;;;;;;;47.23;23.43;;;10.80;91.10;;;;;;5060206;28;20737;-80
2021/12/17 14:19:37;;;;;;;43.13;23.10;;;10.80;91.10;;;;;;5071424;28;20210;-83
2021/12/17 14:22:25;;;;;;;46.60;21.53;;;10.80;91.00;;;;;;5071402;28;20293;-77
2021/12/17 14:24:52;;;;;;;41.77;21.40;;;10.80;90.80;;;;;;5056112;28;20226;-74
2021/12/17 14:27:20;;;;;;;54.33;24.87;;;10.80;90.80;;;;;;5051427;28;20204;-82
2021/12/17 14:29:48;;;;;;;48.63;20.07;;;10.80;91.00;;;;;;5051603;28;20254;-82
2021/12/17 14:32:18;;;;;;;36.87;23.20;;;10.80;90.80;;;;;;5050900;28;20219;-81
2021/12/17 14:34:45;;;;;;;40.23;22.53;;;10.80;90.60;;;;;;5063999;28;20215;-80
2021/12/17 14:37:12;;;;;;;41.50;21.03;;;10.80;90.70;;;;;;5070403;28;20237;-89
2021/12/17 14:39:44;;;;;;;34.90;23.23;;;10.80;90.50;;;;;;5072164;28;20294;-83
2021/12/17 14:42:13;;;;;;;43.10;23.50;;;10.80;90.50;;;;;;5071683;28;20209;-74
2021/12/17 14:44:53;;;;;;;61.30;24.20;;;10.80;90.70;;;;;;5056768;28;20301;-75
2021/12/17 14:47:25;;;;;;;50.13;22.97;;;10.80;90.80;;;;;;5050190;28;20234;-83
2021/12/17 15:01:11;;;;;;;36.63;20.23;;;10.80;90.90;;;;;;5049521;28;20206;-75
2021/12/17 15:03:42;;;;;;;39.03;20.90;;;10.80;90.50;;;;;;5054467;28;20217;-74
2021/12/17 15:06:10;;;;;;;50.50;18.43;;;10.80;90.50;;;;;;5071205;28;20203;-81
2021/12/17 15:08:38;;;;;;;43.67;22.13;;;10.80;90.40;;;;;;5056197;28;20211;-78
2021/12/17 15:11:13;;;;;;;32.07;19.77;;;10.80;90.50;;;;;;5050070;28;20302;-77
2021/12/17 15:13:40;;;;;;;38.27;20.83;;;10.80;90.50;;;;;;5053943;28;20203;-87
2021/12/17 15:16:08;;;;;;;43.77;21.40;;;10.80;90.40;;;;;;5069741;28;20293;-78
2021/12/17 15:18:37;;;;;;;50.63;22.73;;;10.80;90.50;;;;;;5069484;28;20207;-78
2021/12/17 15:21:05;;;;;;;55.07;23.10;;;10.80;90.40;;;;;;5068410;28;20206;-71
2021/12/17 15:23:32;;;;;;;42.17;20.73;;;10.80;90.40;;;;;;5069115;28;20222;-73
2021/12/17 15:25:58;;;;;;;40.53;21.10;;;10.80;90.30;;;;;;5069007;28;20563;-73
2021/12/17 15:28:27;;;;;;;44.27;25.20;;;10.70;90.10;;;;;;5069254;28;20260;-70
2021/12/17 15:30:58;;;;;;;47.17;23.03;;;10.70;90.00;;;;;;5069294;28;20211;-79
2021/12/17 15:33:27;;;;;;;42.50;22.67;;;10.70;90.00;;;;;;5055861;28;20612;-78
2021/12/17 15:35:55;;;;;;;41.87;23.23;;;10.70;90.00;;;;;;5050213;28;20620;-71
2021/12/17 15:38:23;;;;;;;36.23;18.83;;;10.70;90.20;;;;;;5049333;28;20272;-76
2021/12/17 15:40:51;;;;;;;42.13;22.33;;;10.70;90.10;;;;;;5048578;28;20206;-78
2021/12/17 15:43:20;;;;;;;68.67;22.87;;;10.70;90.10;;;;;;5049441;28;20236;-70
2021/12/17 15:45:49;;;;;;;53.23;24.03;;;10.70;90.10;;;;;;5064883;28;20218;-71
2021/12/17 15:48:18;;;;;;;52.20;23.73;;;10.70;90.00;;;;;;5048423;28;20602;-70
2021/12/17 15:50:46;;;;;;;44.47;20.87;;;10.60;90.00;;;;;;5048754;28;20299;-71
2021/12/17 15:53:14;;;;;;;43.97;22.70;;;10.60;90.10;;;;;;5048429;28;20219;-70
2021/12/17 15:55:41;;;;;;;52.67;23.30;;;10.60;90.10;;;;;;5049531;28;20216;-71
2021/12/17 15:58:08;;;;;;;42.10;21.97;;;10.60;90.20;;;;;;5068193;28;20309;-70
2021/12/17 16:00:36;;;;;;;43.57;24.83;;;10.60;90.30;;;;;;5068528;28;20196;-71
2021/12/17 16:03:06;;;;;;;50.40;25.50;;;10.60;90.30;;;;;;5066942;28;20266;-70
2021/12/17 16:05:34;;;;;;;48.77;25.87;;;10.60;90.40;;;;;;5067564;28;20639;-70
2021/12/17 16:08:04;;;;;;;63.47;26.27;;;10.60;90.30;;;;;;5047590;28;20290;-70
2021/12/17 16:11:11;;;;;;;50.00;24.93;;;10.60;90.20;;;;;;5049971;28;20205;-70
2021/12/17 16:21:52;;;;;;;47.33;23.60;;;10.70;90.40;;;;;;5049329;28;20230;-83
2021/12/17 16:24:21;;;;;;;53.17;23.90;;;10.70;90.40;;;;;;5049890;28;20263;-87
2021/12/17 16:26:48;;;;;;;52.83;22.53;;;10.70;90.40;;;;;;5050004;28;20246;-78
2021/12/17 16:29:18;;;;;;;39.83;22.60;;;10.70;90.40;;;;;;5050190;28;20296;-78
2021/12/17 16:31:46;;;;;;;41.10;21.13;;;10.70;90.40;;;;;;5062677;28;20594;-91
2021/12/17 16:34:13;;;;;;;45.03;23.50;;;10.70;90.30;;;;;;5069407;28;20307;-82
2021/12/17 16:36:42;;;;;;;37.47;20.80;;;10.80;90.30;;;;;;5069142;28;20299;-89
2021/12/17 16:39:11;;;;;;;51.17;21.13;;;10.70;90.20;;;;;;5067257;28;20242;-82
2021/12/17 16:41:40;;;;;;;39.03;21.77;;;10.80;90.20;;;;;;5069160;28;20211;-81
2021/12/17 16:44:10;;;;;;;42.60;20.43;;;10.80;90.20;;;;;;5070809;28;20254;-92
2021/12/17 16:49:31;;;;;;;38.43;19.23;;;10.80;90.10;;;;;;5069697;28;20272;-77
2021/12/17 16:51:59;;;;;;;39.77;22.43;;;10.80;90.10;;;;;;5055545;28;20743;-90
2021/12/17 16:54:26;;;;;;;51.17;27.03;;;10.80;90.10;;;;;;5049927;28;20927;-76
2021/12/17 16:56:55;;;;;;;62.43;27.40;;;10.80;90.10;;;;;;5050795;28;20251;-83
2021/12/17 16:59:21;;;;;;;47.33;24.23;;;10.80;90.00;;;;;;5050112;28;20287;-90
2021/12/17 17:01:48;;;;;;;44.03;24.37;;;10.80;90.10;;;;;;5062122;28;20263;-80
2021/12/17 17:04:15;;;;;;;55.17;23.97;;;10.80;90.10;;;;;;5068571;28;20242;-88
2021/12/17 17:06:45;;;;;;;49.60;29.50;;;10.80;90.10;;;;;;5050054;28;20239;-81
2021/12/17 17:09:12;;;;;;;63.33;25.53;;;10.80;90.10;;;;;;5049182;28;20291;-83
2021/12/17 17:11:42;;;;;;;62.87;26.30;;;10.80;90.20;;;;;;5050631;28;20550;-78
2021/12/17 17:14:11;;;;;;;35.30;21.70;;;10.80;90.10;;;;;;5050015;28;20235;-79
2021/12/17 17:16:40;;;;;;;42.93;23.10;;;10.80;90.00;;;;;;5049211;28;20269;-79
2021/12/17 17:19:08;;;;;;;43.90;24.20;;;10.80;90.00;;;;;;5050754;28;20215;-77
2021/12/17 17:21:35;;;;;;;55.43;22.43;;;10.90;90.10;;;;;;5069927;28;20196;-71
2021/12/17 17:24:03;;;;;;;43.03;22.60;;;10.80;90.10;;;;;;5079227;28;20307;-82
2021/12/17 17:26:31;;;;;;;32.80;22.10;;;10.90;90.10;;;;;;5077369;28;20230;-83
2021/12/17 17:28:58;;;;;;;42.20;23.30;;;10.90;89.90;;;;;;5074378;28;20211;-80
2021/12/17 17:31:29;;;;;;;64.33;24.07;;;10.80;89.80;;;;;;5068068;28;20197;-87
2021/12/17 17:33:56;;;;;;;41.50;23.40;;;10.80;89.90;;;;;;5070458;28;20223;-85
2021/12/17 17:36:24;;;;;;;44.30;22.90;;;10.80;90.00;;;;;;5074597;28;20219;-73
2021/12/17 17:38:54;;;;;;;50.30;22.77;;;10.80;90.00;;;;;;5075991;28;20263;-80
2021/12/17 17:41:24;;;;;;;38.47;20.33;;;10.80;90.00;;;;;;5064718;28;20276;-88
2021/12/17 17:43:52;;;;;;;24.40;21.60;;;10.80;90.10;;;;;;5055584;28;20280;-84
2021/12/17 17:46:19;;;;;;;36.73;22.70;;;10.90;90.30;;;;;;5053642;28;20200;-88
2021/12/17 17:48:48;;;;;;;40.63;23.03;;;10.90;90.40;;;;;;5053961;28;20243;-81
2021/12/17 17:51:15;;;;;;;39.97;22.17;;;10.90;90.40;;;;;;5058545;28;20231;-79
2021/12/17 17:53:42;;;;;;;47.20;25.63;;;10.90;90.40;;;;;;5069217;28;20203;-76
2021/12/17 17:56:09;;;;;;;48.10;22.50;;;10.90;90.30;;;;;;5062952;28;20287;-76
2021/12/17 17:58:38;;;;;;;39.33;23.77;;;10.90;90.30;;;;;;5071805;28;20250;-76
2021/12/17 18:01:06;;;;;;;49.07;23.27;;;11.00;90.30;;;;;;5060980;28;20286;-80
2021/12/17 18:03:34;;;;;;;42.10;22.87;;;11.00;90.20;;;;;;5068536;28;20203;-88
2021/12/17 18:06:03;;;;;;;49.37;24.23;;;11.00;90.20;;;;;;5059710;28;20282;-72
2021/12/17 18:08:30;;;;;;;39.13;21.70;;;11.00;90.10;;;;;;5069547;28;20193;-77
2021/12/17 18:10:57;;;;;;;40.87;21.73;;;11.00;90.10;;;;;;5055638;28;20279;-79
2021/12/17 18:13:26;;;;;;;44.60;22.33;;;11.10;90.10;;;;;;5069725;28;20287;-73
2021/12/17 18:15:55;;;;;;;36.57;22.27;;;11.00;90.00;;;;;;5051574;28;20256;-72
2021/12/17 18:18:22;;;;;;;44.80;20.67;;;11.10;90.10;;;;;;5053030;28;20390;-85
2021/12/17 18:20:50;;;;;;;52.30;21.53;;;11.10;90.10;;;;;;5069228;28;20777;-84
2021/12/17 18:23:20;;;;;;;38.17;21.93;;;11.10;90.10;;;;;;5051472;28;20735;-81
2021/12/17 18:25:48;;;;;;;59.80;23.73;;;11.10;90.00;;;;;;5051949;28;20307;-87
2021/12/17 18:28:16;;;;;;;41.23;21.83;;;11.10;90.00;;;;;;5052825;28;20203;-85
2021/12/17 18:30:44;;;;;;;54.27;23.03;;;11.20;90.00;;;;;;5053047;28;20715;-74
2021/12/17 18:33:11;;;;;;;35.83;21.50;;;11.20;90.00;;;;;;5081072;28;20203;-79
2021/12/17 18:35:39;;;;;;;36.30;19.07;;;11.20;90.00;;;;;;5075587;28;20245;-83
2021/12/17 18:38:07;;;;;;;39.13;23.87;;;11.20;89.80;;;;;;5073238;28;20319;-89
2021/12/17 18:40:41;;;;;;;41.40;21.77;;;11.20;89.80;;;;;;5053118;23;20336;-76
2021/12/17 18:45:53;;;;;;;41.53;19.17;;;11.20;89.60;;;;;;4970824;28;20221;-84
2021/12/17 18:48:21;;;;;;;38.43;20.97;;;11.20;89.60;;;;;;4992266;28;20225;-82
2021/12/17 18:50:49;;;;;;;48.40;21.73;;;11.30;89.60;;;;;;5009737;28;20209;-79
2021/12/17 18:53:16;;;;;;;45.33;21.30;;;11.30;89.50;;;;;;5010227;28;20252;-78
2021/12/17 18:55:45;;;;;;;47.80;22.67;;;11.30;89.30;;;;;;5009877;28;20263;-76
2021/12/17 18:58:13;;;;;;;46.03;21.83;;;11.30;89.10;;;;;;5010347;28;20954;-72
2021/12/17 19:00:43;;;;;;;46.53;21.60;;;11.30;89.10;;;;;;5010300;28;20292;-71
2021/12/17 19:03:10;;;;;;;46.47;20.23;;;11.30;89.10;;;;;;5010398;28;20493;-74
2021/12/17 19:05:39;;;;;;;41.03;23.27;;;11.30;89.10;;;;;;5009916;28;20217;-75
2021/12/17 19:08:06;;;;;;;43.33;23.87;;;11.30;89.10;;;;;;5010388;28;20205;-74
2021/12/17 19:10:33;;;;;;;43.67;22.30;;;11.30;89.10;;;;;;5009834;28;20292;-75
2021/12/17 19:13:01;;;;;;;39.47;22.87;;;11.30;89.10;;;;;;5009832;28;20665;-72
2021/12/17 19:15:28;;;;;;;49.00;20.63;;;11.30;89.00;;;;;;5008829;28;20324;-71
2021/12/17 19:17:55;;;;;;;51.97;24.73;;;11.30;89.00;;;;;;5008345;28;20253;-75
2021/12/17 19:20:30;;;;;;;47.23;21.30;;;11.30;89.00;;;;;;5011086;28;20233;-74
2021/12/17 19:23:00;;;;;;;58.30;20.80;;;11.30;89.00;;;;;;5008209;28;20201;-73
2021/12/17 19:25:29;;;;;;;49.43;22.40;;;11.30;89.00;;;;;;5009718;28;20237;-73
2021/12/17 19:27:56;;;;;;;43.77;22.20;;;11.30;89.00;;;;;;5018139;28;20201;-73
2021/12/17 19:30:24;;;;;;;58.90;22.57;;;11.30;89.00;;;;;;5017641;28;20232;-78
2021/12/17 19:32:51;;;;;;;53.63;23.40;;;11.30;88.90;;;;;;5009732;28;20656;-74
2021/12/17 19:35:19;;;;;;;46.80;22.70;;;11.30;89.00;;;;;;5009037;28;20264;-71
2021/12/17 19:37:46;;;;;;;50.37;23.37;;;11.30;88.90;;;;;;5009110;28;20268;-74
2021/12/17 19:40:14;;;;;;;41.53;24.97;;;11.30;88.80;;;;;;5009536;28;20439;-70
2021/12/17 19:42:41;;;;;;;44.03;23.53;;;11.30;88.80;;;;;;5009197;28;20681;-74
2021/12/17 19:45:09;;;;;;;49.77;23.90;;;11.30;88.70;;;;;;5009037;28;20331;-82
2021/12/17 19:47:54;;;;;;;44.13;20.87;;;11.30;88.70;;;;;;5009379;28;20807;-71
2021/12/17 19:50:22;;;;;;;42.47;22.77;;;11.30;88.50;;;;;;5009002;28;20220;-71
2021/12/17 19:52:49;;;;;;;46.37;20.13;;;11.30;88.70;;;;;;5008587;28;20300;-76
2021/12/17 19:55:15;;;;;;;38.17;21.33;;;11.30;88.70;;;;;;5008844;28;20316;-71
2021/12/17 19:57:42;;;;;;;43.87;22.50;;;11.30;88.50;;;;;;5008771;28;20232;-73
2021/12/17 20:00:14;;;;;;;48.80;22.43;;;11.30;88.50;;;;;;5009121;28;20288;-73
2021/12/17 20:02:48;;;;;;;46.77;22.20;;;11.30;88.40;;;;;;5008464;28;20204;-71
2021/12/17 20:05:15;;;;;;;47.23;25.13;;;11.40;88.50;;;;;;5008974;28;20225;-71
2021/12/17 20:07:42;;;;;;;43.80;23.97;;;11.30;88.50;;;;;;5009087;28;20244;-76
2021/12/17 20:10:10;;;;;;;59.40;25.50;;;11.30;88.40;;;;;;5008591;28;20316;-84
2021/12/17 20:12:37;;;;;;;44.50;22.13;;;11.40;88.40;;;;;;5007722;28;20236;-71
2021/12/17 20:15:06;;;;;;;48.97;26.03;;;11.40;88.40;;;;;;5008602;28;20316;-75
2021/12/17 20:17:33;;;;;;;51.67;23.03;;;11.30;88.20;;;;;;5008499;28;20246;-71
2021/12/17 20:20:01;;;;;;;50.00;25.57;;;11.40;88.30;;;;;;5008915;28;20216;-71
2021/12/17 20:22:28;;;;;;;55.70;25.67;;;11.40;88.20;;;;;;5008938;28;20677;-79
2021/12/17 20:24:55;;;;;;;61.37;26.93;;;11.40;88.20;;;;;;5008158;28;20731;-72
2021/12/17 20:27:22;;;;;;;52.20;24.83;;;11.40;88.20;;;;;;5025769;28;20304;-72
2021/12/17 20:29:51;;;;;;;60.53;29.00;;;11.40;88.10;;;;;;5028759;28;20239;-77
2021/12/17 20:32:21;;;;;;;50.10;25.33;;;11.40;88.10;;;;;;5017326;28;20321;-72
2021/12/17 20:34:48;;;;;;;50.80;27.00;;;11.40;87.90;;;;;;5008215;28;20276;-72
2021/12/17 20:37:17;;;;;;;52.90;29.37;;;11.40;87.90;;;;;;5008801;28;20229;-74
2021/12/17 20:39:48;;;;;;;49.47;25.30;;;11.40;87.60;;;;;;5008130;28;20324;-72
2021/12/17 20:42:22;;;;;;;57.67;28.03;;;11.40;87.80;;;;;;5007840;28;20197;-70
2021/12/17 20:44:49;;;;;;;61.93;33.17;;;11.40;87.80;;;;;;5008057;28;20320;-73
2021/12/17 20:47:16;;;;;;;93.13;32.70;;;11.40;87.50;;;;;;5008511;28;20239;-81
2021/12/17 20:49:43;;;;;;;57.63;31.07;;;11.30;87.10;;;;;;5008699;28;20729;-79
2021/12/17 20:52:10;;;;;;;63.47;29.53;;;11.30;86.90;;;;;;5011148;28;20550;-71
2021/12/17 20:54:38;;;;;;;55.87;31.00;;;11.40;87.00;;;;;;5008418;28;20762;-72
2021/12/17 20:57:05;;;;;;;63.97;30.87;;;11.30;86.90;;;;;;5009043;28;20300;-71
2021/12/17 20:59:32;;;;;;;61.50;31.50;;;11.30;86.90;;;;;;5003679;28;20233;-71
2021/12/17 21:01:59;;;;;;;50.77;31.00;;;11.30;86.90;;;;;;4993378;28;20923;-75
2021/12/17 21:04:26;;;;;;;58.57;31.17;;;11.30;86.80;;;;;;5010696;28;20886;-83
2021/12/17 21:06:54;;;;;;;53.90;31.73;;;11.30;86.80;;;;;;5012174;28;20213;-72
2021/12/17 21:09:21;;;;;;;72.10;33.63;;;11.30;86.80;;;;;;5009514;28;20210;-73
2021/12/17 21:11:56;;;;;;;65.57;34.13;;;11.30;86.90;;;;;;5007928;28;20209;-84
2021/12/17 21:14:24;;;;;;;57.97;31.90;;;11.30;86.80;;;;;;5012316;28;20232;-71
2021/12/17 21:16:58;;;;;;;68.50;33.43;;;11.30;86.90;;;;;;5011185;28;20268;-72
2021/12/17 21:19:30;;;;;;;78.37;34.07;;;11.30;86.90;;;;;;5010061;28;20308;-73
2021/12/17 21:21:59;;;;;;;55.47;31.47;;;11.30;87.40;;;;;;5011685;28;20202;-70
2021/12/17 21:24:26;;;;;;;72.33;36.27;;;11.30;86.70;;;;;;5014259;28;20225;-73
2021/12/17 21:26:56;;;;;;;62.93;34.70;;;11.30;86.70;;;;;;5015638;28;20229;-70
2021/12/17 21:29:24;;;;;;;75.57;35.07;;;11.30;86.50;;;;;;5014174;28;20768;-72
2021/12/17 21:32:05;;;;;;;114.67;37.83;;;11.30;86.60;;;;;;5092505;23;20289;-93
2021/12/17 21:34:35;;;;;;;111.17;34.30;;;11.30;86.30;;;;;;4998498;28;20226;-92
2021/12/17 21:37:04;;;;;;;65.87;32.93;;;11.30;86.30;;;;;;5003718;28;20207;-90
2021/12/17 21:39:32;;;;;;;71.53;34.90;;;11.30;86.40;;;;;;4995983;28;20218;-92
2021/12/17 21:42:01;;;;;;;61.50;33.80;;;11.30;86.40;;;;;;4993100;28;20194;-90
2021/12/17 21:44:39;;;;;;;54.63;33.53;;;11.30;86.40;;;;;;4991520;28;21104;-90
2021/12/17 21:50:08;;;;;;;65.73;33.07;;;11.20;86.20;;;;;;4989589;28;20286;-93
2021/12/17 21:52:50;;;;;;;62.27;33.13;;;11.10;85.50;;;;;;4992303;28;20194;-93
2021/12/17 21:55:21;;;;;;;69.23;32.90;;;11.20;86.00;;;;;;4993661;28;20329;-92
2021/12/17 21:57:58;;;;;;;63.73;32.83;;;11.20;86.20;;;;;;4992377;28;20211;-92
2021/12/17 22:00:31;;;;;;;56.77;34.20;;;11.20;86.00;;;;;;5226984;23;20622;-89
2021/12/17 22:05:35;;;;;;;59.77;33.67;;;11.20;86.30;;;;;;5297560;23;20272;-85
2021/12/17 22:08:06;;;;;;;66.07;33.07;;;11.20;86.30;;;;;;5019279;28;20228;-86
2021/12/17 22:16:44;;;;;;;70.57;34.17;;;11.20;86.30;;;;;;5203013;23;20242;-86
2021/12/17 22:19:12;;;;;;;63.87;33.00;;;11.20;86.30;;;;;;4991460;28;20294;-86
2021/12/17 22:21:46;;;;;;;59.83;34.53;;;11.20;86.30;;;;;;4989820;28;20213;-86
2021/12/17 22:24:31;;;;;;;77.27;37.43;;;11.10;86.20;;;;;;4973766;23;20235;-81
2021/12/17 22:26:59;;;;;;;78.37;36.33;;;11.10;86.20;;;;;;4951369;28;20327;-81
2021/12/17 22:29:26;;;;;;;69.07;36.70;;;11.10;86.30;;;;;;4950823;28;20223;-81
2021/12/17 22:31:54;;;;;;;81.27;35.50;;;11.20;86.40;;;;;;4949089;29;20203;-81
2021/12/17 22:34:23;;;;;;;69.13;37.43;;;11.20;86.30;;;;;;4949081;29;20200;-81
2021/12/17 22:36:51;;;;;;;79.70;36.30;;;11.10;86.20;;;;;;4943010;29;20217;-81
2021/12/17 22:39:18;;;;;;;79.27;36.67;;;11.20;86.30;;;;;;4933049;29;20343;-80
2021/12/17 22:41:46;;;;;;;62.67;33.53;;;11.10;86.20;;;;;;4941575;29;20261;-80
2021/12/17 22:44:16;;;;;;;64.97;35.07;;;11.10;86.20;;;;;;4945718;28;20613;-81
2021/12/17 22:46:44;;;;;;;66.50;38.30;;;11.10;86.00;;;;;;4936720;29;20299;-80
2021/12/17 22:49:13;;;;;;;86.97;38.30;;;11.10;86.00;;;;;;4939447;28;20266;-82
2021/12/17 22:51:41;;;;;;;57.17;33.97;;;11.10;85.70;;;;;;4927972;29;20215;-82
2021/12/17 22:54:08;;;;;;;77.93;34.30;;;11.10;85.60;;;;;;4935510;29;20291;-81
2021/12/17 22:56:36;;;;;;;67.53;35.50;;;11.10;85.50;;;;;;4937366;28;20215;-81
2021/12/17 22:59:03;;;;;;;69.17;36.20;;;11.10;85.50;;;;;;4938805;28;20235;-84
2021/12/17 23:01:32;;;;;;;64.40;33.67;;;11.10;85.40;;;;;;4921003;29;20236;-81
2021/12/17 23:04:05;;;;;;;62.53;34.50;;;11.00;85.30;;;;;;4942335;28;20207;-80
2021/12/17 23:06:40;;;;;;;65.60;34.03;;;11.10;85.40;;;;;;4936455;29;20204;-81
2021/12/17 23:09:18;;;;;;;63.03;34.43;;;11.10;85.40;;;;;;4937365;29;20313;-81
2021/12/17 23:11:52;;;;;;;56.90;33.83;;;11.10;85.30;;;;;;4936817;29;20215;-81
2021/12/17 23:14:22;;;;;;;59.50;33.83;;;11.10;85.40;;;;;;4934502;29;20298;-80
2021/12/17 23:16:50;;;;;;;72.67;39.20;;;11.00;85.30;;;;;;4934377;29;20215;-81
2021/12/17 23:19:17;;;;;;;75.07;37.30;;;11.10;85.40;;;;;;4950526;28;20851;-81
2021/12/17 23:21:45;;;;;;;65.00;36.77;;;11.10;85.40;;;;;;4938798;28;20291;-81
2021/12/17 23:24:13;;;;;;;68.07;37.33;;;11.10;85.20;;;;;;4945037;29;20242;-81
2021/12/17 23:26:40;;;;;;;64.53;34.00;;;11.00;84.90;;;;;;4924275;29;20220;-81
2021/12/17 23:29:08;;;;;;;63.13;35.37;;;11.00;84.90;;;;;;4931590;29;20314;-93
2021/12/17 23:31:36;;;;;;;56.93;34.60;;;11.00;85.30;;;;;;4931450;29;21386;-81
2021/12/17 23:34:09;;;;;;;68.50;36.40;;;11.00;84.50;;;;;;4931423;29;20200;-81
2021/12/17 23:36:38;;;;;;;68.93;38.83;;;11.00;84.40;;;;;;4941124;29;20234;-81
2021/12/17 23:39:10;;;;;;;71.13;36.23;;;11.00;84.40;;;;;;4932533;29;20629;-83
2021/12/17 23:41:38;;;;;;;60.97;33.10;;;11.00;84.40;;;;;;4931736;29;20236;-81
2021/12/17 23:44:06;;;;;;;56.33;34.97;;;11.00;84.70;;;;;;4931492;29;20291;-81
2021/12/17 23:46:35;;;;;;;66.43;34.97;;;11.00;84.80;;;;;;4940508;29;20239;-81
2021/12/17 23:49:03;;;;;;;65.47;38.47;;;11.00;84.80;;;;;;4951082;28;20234;-81
2021/12/17 23:51:30;;;;;;;59.73;34.30;;;11.00;84.80;;;;;;4931772;29;20291;-89
2021/12/17 23:53:57;;;;;;;109.37;39.00;;;11.00;84.80;;;;;;4930154;29;20811;-81
2021/12/17 23:56:25;;;;;;;63.17;34.53;;;11.00;84.80;;;;;;4931046;29;20293;-81
2021/12/17 23:58:52;;;;;;;62.90;36.13;;;11.00;84.60;;;;;;4931430;29;20319;-81
